createdAt,value
2019-05-25T00:02:09.081Z,95073.52
2019-05-25T00:04:38.340Z,95080.13
2019-05-25T00:07:09.235Z,95074.63
2019-05-25T00:09:38.464Z,95077.58
2019-05-25T00:12:07.888Z,95078.66
2019-05-25T00:14:37.132Z,95079.69
2019-05-25T00:17:05.948Z,95076.02
2019-05-25T00:19:34.844Z,95085.37
2019-05-25T00:22:03.733Z,95077.25
2019-05-25T00:24:32.623Z,95075.04
2019-05-25T00:27:01.626Z,95078.16
2019-05-25T00:29:30.509Z,95072.16
2019-05-25T00:31:59.412Z,95065.38
2019-05-25T00:34:28.289Z,95070.94
2019-05-25T00:36:57.286Z,95062.75
2019-05-25T00:39:26.175Z,95068.05
2019-05-25T00:41:54.983Z,95072.97
2019-05-25T00:44:25.414Z,95062.26
2019-05-25T00:46:54.284Z,95064.17
2019-05-25T00:49:23.173Z,95067.05
2019-05-25T00:51:52.066Z,95065.66
2019-05-25T00:54:27.906Z,95066.02
2019-05-25T00:56:51.589Z,95065.73
2019-05-25T00:59:20.623Z,95068.64
2019-05-25T01:01:49.473Z,95060.38
2019-05-25T01:04:18.363Z,95067.50
2019-05-25T01:06:47.870Z,95067.44
2019-05-25T01:09:16.761Z,95061.42
2019-05-25T01:11:45.656Z,95063.16
2019-05-25T01:14:14.444Z,95064.59
2019-05-25T01:16:43.340Z,95064.80
2019-05-25T01:19:12.229Z,95065.06
2019-05-25T01:21:41.116Z,95068.64
2019-05-25T01:24:10.416Z,95068.19
2019-05-25T01:26:39.412Z,95065.39
2019-05-25T01:29:08.611Z,95066.90
2019-05-25T01:31:37.504Z,95063.42
2019-05-25T01:34:07.419Z,95064.31
2019-05-25T01:36:36.307Z,95068.70
2019-05-25T01:39:07.391Z,95068.48
2019-05-25T01:41:36.239Z,95063.84
2019-05-25T01:44:05.328Z,95070.67
2019-05-25T01:46:34.122Z,95068.55
2019-05-25T01:49:03.017Z,95066.47
2019-05-25T01:51:31.904Z,95065.94
2019-05-25T01:54:00.698Z,95075.42
2019-05-25T01:56:29.584Z,95071.20
2019-05-25T01:58:58.479Z,95078.30
2019-05-25T02:01:27.374Z,95084.28
2019-05-25T02:03:57.692Z,95090.11
2019-05-25T02:06:26.583Z,95079.31
2019-05-25T02:08:55.476Z,95076.70
2019-05-25T02:11:24.371Z,95075.69
2019-05-25T02:13:53.259Z,95083.18
2019-05-25T02:16:22.148Z,95077.65
2019-05-25T02:18:50.937Z,95076.84
2019-05-25T02:21:19.742Z,95078.23
2019-05-25T02:23:48.619Z,95078.46
2019-05-25T02:26:17.510Z,95082.69
2019-05-25T02:28:46.398Z,95080.30
2019-05-25T02:31:15.290Z,95081.34
2019-05-25T02:33:44.180Z,95075.07
2019-05-25T02:36:13.072Z,95068.45
2019-05-25T02:38:41.963Z,95063.48
2019-05-25T02:41:11.469Z,95070.03
2019-05-25T02:43:40.361Z,95076.63
2019-05-25T02:46:10.330Z,95072.70
2019-05-25T02:48:39.169Z,95072.66
2019-05-25T02:51:08.776Z,95069.00
2019-05-25T02:53:37.670Z,95071.38
2019-05-25T02:56:06.558Z,95066.86
2019-05-25T02:58:35.450Z,95071.31
2019-05-25T03:01:04.751Z,95069.48
2019-05-25T03:03:33.743Z,95076.59
2019-05-25T03:06:03.423Z,95076.11
2019-05-25T03:08:32.962Z,95076.63
2019-05-25T03:11:02.057Z,95076.63
2019-05-25T03:13:32.789Z,95075.77
2019-05-25T03:16:02.092Z,95084.28
2019-05-25T03:18:30.984Z,95081.94
2019-05-25T03:20:59.872Z,95084.08
2019-05-25T03:23:28.767Z,95075.60
2019-05-25T03:25:57.656Z,95089.23
2019-05-25T03:28:26.446Z,95089.20
2019-05-25T03:30:55.337Z,95091.95
2019-05-25T03:33:24.331Z,95092.27
2019-05-25T03:35:53.220Z,95096.02
2019-05-25T03:38:22.111Z,95096.16
2019-05-25T03:40:50.912Z,95095.15
2019-05-25T03:43:19.796Z,95096.94
2019-05-25T03:45:48.692Z,95107.58
2019-05-25T03:48:17.572Z,95099.86
2019-05-25T03:50:46.476Z,95100.95
2019-05-25T03:53:15.358Z,95106.33
2019-05-25T03:55:44.255Z,95105.80
2019-05-25T03:58:13.041Z,95115.63
2019-05-25T04:00:42.223Z,95121.73
2019-05-25T04:03:11.431Z,95121.80
2019-05-25T04:05:40.327Z,95123.37
2019-05-25T04:08:09.598Z,95124.20
2019-05-25T04:10:39.102Z,95125.61
2019-05-25T04:13:08.962Z,95121.14
2019-05-25T04:15:37.837Z,95127.16
2019-05-25T04:18:06.728Z,95122.11
2019-05-25T04:20:35.727Z,95123.42
2019-05-25T04:23:04.712Z,95117.36
2019-05-25T04:25:33.715Z,95123.75
2019-05-25T04:28:02.597Z,95120.98
2019-05-25T04:30:31.590Z,95131.65
2019-05-25T04:33:00.488Z,95127.26
2019-05-25T04:35:29.377Z,95121.50
2019-05-25T04:37:58.263Z,95126.87
2019-05-25T04:40:27.302Z,95128.54
2019-05-25T04:42:56.272Z,95126.92
2019-05-25T04:45:25.759Z,95128.30
2019-05-25T04:47:54.647Z,95121.20
2019-05-25T04:50:23.538Z,95137.11
2019-05-25T04:52:52.436Z,95140.50
2019-05-25T04:55:21.411Z,95137.95
2019-05-25T04:57:50.214Z,95142.73
2019-05-25T05:00:19.207Z,95140.98
2019-05-25T05:02:48.098Z,95139.66
2019-05-25T05:05:16.924Z,95141.16
2019-05-25T05:07:45.777Z,95140.00
2019-05-25T05:10:14.976Z,95147.81
2019-05-25T05:12:43.874Z,95143.53
2019-05-25T05:15:14.443Z,95143.30
2019-05-25T05:17:43.289Z,95141.83
2019-05-25T05:20:13.614Z,95148.02
2019-05-25T05:22:42.818Z,95143.28
2019-05-25T05:25:12.737Z,95156.02
2019-05-25T05:27:41.616Z,95154.52
2019-05-25T05:30:11.438Z,95149.02
2019-05-25T05:32:40.320Z,95148.42
2019-05-25T05:35:09.804Z,95154.14
2019-05-25T05:37:40.254Z,95159.45
2019-05-25T05:40:10.071Z,95162.22
2019-05-25T05:42:41.066Z,95164.05
2019-05-25T05:45:12.520Z,95163.92
2019-05-25T05:47:43.946Z,95163.69
2019-05-25T05:50:13.636Z,95163.94
2019-05-25T05:52:42.511Z,95171.38
2019-05-25T05:55:12.766Z,95171.03
2019-05-25T05:57:44.292Z,95172.81
2019-05-25T06:00:14.201Z,95180.22
2019-05-25T06:02:43.093Z,95170.67
2019-05-25T06:05:13.575Z,95181.83
2019-05-25T06:07:42.412Z,95179.55
2019-05-25T06:10:13.733Z,95181.83
2019-05-25T06:12:42.653Z,95184.66
2019-05-25T06:15:13.115Z,95176.92
2019-05-25T06:17:41.969Z,95188.23
2019-05-25T06:20:11.382Z,95193.09
2019-05-25T06:22:40.265Z,95183.50
2019-05-25T06:25:10.401Z,95187.67
2019-05-25T06:27:39.275Z,95190.83
2019-05-25T06:30:09.059Z,95191.60
2019-05-25T06:32:38.230Z,95187.95
2019-05-25T06:35:07.265Z,95195.68
2019-05-25T06:37:36.068Z,95195.72
2019-05-25T06:40:06.997Z,95203.62
2019-05-25T06:42:36.003Z,95196.73
2019-05-25T06:45:06.029Z,95202.59
2019-05-25T06:47:34.911Z,95207.08
2019-05-25T06:50:05.429Z,95213.33
2019-05-25T06:52:34.338Z,95216.53
2019-05-25T06:55:03.312Z,95211.94
2019-05-25T06:57:42.503Z,95215.89
2019-05-25T07:00:02.969Z,95219.13
2019-05-25T07:02:32.485Z,95218.59
2019-05-25T07:05:01.351Z,95217.96
2019-05-25T07:07:30.240Z,95222.02
2019-05-25T07:09:59.129Z,95220.29
2019-05-25T07:12:28.125Z,95222.34
2019-05-25T07:14:57.013Z,95226.23
2019-05-25T07:17:25.903Z,95228.22
2019-05-25T07:19:54.809Z,95232.73
2019-05-25T07:22:23.943Z,95233.88
2019-05-25T07:24:52.807Z,95235.64
2019-05-25T07:27:22.085Z,95231.52
2019-05-25T07:29:51.008Z,95229.13
2019-05-25T07:32:19.866Z,95226.94
2019-05-25T07:34:48.761Z,95223.34
2019-05-25T07:37:17.649Z,95230.55
2019-05-25T07:39:46.541Z,95233.12
2019-05-25T07:42:15.439Z,95239.72
2019-05-25T07:44:44.323Z,95240.16
2019-05-25T07:47:13.111Z,95242.88
2019-05-25T07:49:42.105Z,95250.88
2019-05-25T07:52:11.201Z,95241.00
2019-05-25T07:54:40.092Z,95247.16
2019-05-25T07:57:09.904Z,95246.31
2019-05-25T07:59:38.796Z,95244.28
2019-05-25T08:02:08.285Z,95251.64
2019-05-25T08:04:37.197Z,95241.96
2019-05-25T08:07:06.086Z,95243.03
2019-05-25T08:09:34.873Z,95241.97
2019-05-25T08:12:03.763Z,95243.55
2019-05-25T08:14:32.758Z,95245.19
2019-05-25T08:17:01.754Z,95239.95
2019-05-25T08:19:30.648Z,95241.86
2019-05-25T08:21:59.537Z,95246.89
2019-05-25T08:24:28.424Z,95241.58
2019-05-25T08:26:57.316Z,95250.56
2019-05-25T08:29:26.208Z,95253.21
2019-05-25T08:31:54.997Z,95257.70
2019-05-25T08:34:23.889Z,95253.74
2019-05-25T08:36:52.676Z,95262.73
2019-05-25T08:39:21.569Z,95258.50
2019-05-25T08:41:50.462Z,95260.06
2019-05-25T08:44:19.350Z,95261.66
2019-05-25T08:46:48.253Z,95261.13
2019-05-25T08:49:17.131Z,95259.54
2019-05-25T08:51:46.027Z,95268.80
2019-05-25T08:54:14.916Z,95264.31
2019-05-25T08:56:43.806Z,95262.72
2019-05-25T08:59:12.803Z,95267.47
2019-05-25T09:01:41.717Z,95267.73
2019-05-25T09:04:11.344Z,95266.42
2019-05-25T09:06:40.189Z,95264.81
2019-05-25T09:09:09.866Z,95260.59
2019-05-25T09:11:38.689Z,95266.95
2019-05-25T09:14:08.504Z,95268.50
2019-05-25T09:16:37.395Z,95270.06
2019-05-25T09:19:06.285Z,95269.03
2019-05-25T09:21:35.176Z,95270.88
2019-05-25T09:24:04.169Z,95266.13
2019-05-25T09:26:33.064Z,95270.52
2019-05-25T09:29:04.784Z,95267.38
2019-05-25T09:31:32.484Z,95270.50
2019-05-25T09:34:01.379Z,95269.36
2019-05-25T09:36:30.263Z,95267.37
2019-05-25T09:38:59.163Z,95267.44
2019-05-25T09:41:28.046Z,95265.03
2019-05-25T09:43:56.954Z,95260.94
2019-05-25T09:46:25.828Z,95269.03
2019-05-25T09:48:54.722Z,95268.89
2019-05-25T09:51:25.150Z,95268.84
2019-05-25T09:53:54.041Z,95273.70
2019-05-25T09:56:23.237Z,95271.79
2019-05-25T09:58:52.127Z,95267.16
2019-05-25T10:01:21.124Z,95269.73
2019-05-25T10:03:50.013Z,95262.22
2019-05-25T10:06:18.904Z,95262.52
2019-05-25T10:08:47.897Z,95256.02
2019-05-25T10:11:16.893Z,95256.02
2019-05-25T10:13:45.804Z,95254.27
2019-05-25T10:16:14.809Z,95253.78
2019-05-25T10:18:43.674Z,95252.33
2019-05-25T10:21:14.958Z,95257.48
2019-05-25T10:23:43.301Z,95256.05
2019-05-25T10:26:12.697Z,95258.19
2019-05-25T10:28:41.586Z,95260.49
2019-05-25T10:31:11.301Z,95256.66
2019-05-25T10:33:40.193Z,95259.31
2019-05-25T10:36:09.390Z,95258.06
2019-05-25T10:38:38.280Z,95258.35
2019-05-25T10:41:07.277Z,95259.92
2019-05-25T10:43:36.171Z,95264.09
2019-05-25T10:46:05.162Z,95261.91
2019-05-25T10:48:35.175Z,95257.22
2019-05-25T10:51:05.667Z,95256.02
2019-05-25T10:53:34.595Z,95256.95
2019-05-25T10:56:03.488Z,95263.06
2019-05-25T10:58:32.379Z,95264.64
2019-05-25T11:01:01.276Z,95264.55
2019-05-25T11:03:30.160Z,95255.72
2019-05-25T11:05:59.054Z,95255.03
2019-05-25T11:08:27.943Z,95258.55
2019-05-25T11:10:58.271Z,95265.70
2019-05-25T11:13:27.170Z,95255.34
2019-05-25T11:15:56.052Z,95256.86
2019-05-25T11:18:24.942Z,95249.70
2019-05-25T11:20:53.837Z,95256.23
2019-05-25T11:23:24.157Z,95258.70
2019-05-25T11:25:53.119Z,95252.00
2019-05-25T11:28:23.173Z,95252.81
2019-05-25T11:30:52.063Z,95256.66
2019-05-25T11:33:22.105Z,95251.23
2019-05-25T11:35:50.975Z,95254.08
2019-05-25T11:38:19.963Z,95253.48
2019-05-25T11:40:48.861Z,95251.34
2019-05-25T11:43:17.746Z,95251.55
2019-05-25T11:45:46.635Z,95250.83
2019-05-25T11:48:15.428Z,95243.00
2019-05-25T11:50:44.315Z,95244.87
2019-05-25T11:53:13.206Z,95242.86
2019-05-25T11:55:42.097Z,95234.64
2019-05-25T11:58:11.197Z,95228.92
2019-05-25T12:00:41.319Z,95227.56
2019-05-25T12:03:10.511Z,95221.86
2019-05-25T12:05:39.304Z,95227.30
2019-05-25T12:08:08.500Z,95225.58
2019-05-25T12:10:37.493Z,95233.36
2019-05-25T12:13:06.385Z,95225.52
2019-05-25T12:15:36.711Z,95226.65
2019-05-25T12:18:07.535Z,95219.72
2019-05-25T12:20:36.339Z,95218.48
2019-05-25T12:23:05.401Z,95227.63
2019-05-25T12:25:34.321Z,95210.88
2019-05-25T12:28:03.227Z,95212.38
2019-05-25T12:30:40.868Z,95211.76
2019-05-25T12:33:02.738Z,95224.81
2019-05-25T12:35:33.064Z,95227.20
2019-05-25T12:38:01.986Z,95219.65
2019-05-25T12:40:32.462Z,95226.45
2019-05-25T12:43:01.382Z,95222.31
2019-05-25T12:45:30.269Z,95219.52
2019-05-25T12:47:59.159Z,95221.58
2019-05-25T12:50:28.047Z,95220.28
2019-05-25T12:52:56.945Z,95222.14
2019-05-25T12:55:25.834Z,95221.45
2019-05-25T12:57:54.725Z,95218.89
2019-05-25T13:00:24.023Z,95220.47
2019-05-25T13:02:52.916Z,95215.91
2019-05-25T13:05:33.623Z,95223.77
2019-05-25T13:07:53.463Z,95221.39
2019-05-25T13:10:25.013Z,95217.73
2019-05-25T13:12:53.933Z,95220.23
2019-05-25T13:15:22.819Z,95221.84
2019-05-25T13:17:51.793Z,95219.53
2019-05-25T13:20:20.993Z,95220.31
2019-05-25T13:22:49.885Z,95212.06
2019-05-25T13:25:18.780Z,95219.69
2019-05-25T13:27:47.671Z,95217.14
2019-05-25T13:30:17.904Z,95212.30
2019-05-25T13:32:46.782Z,95200.36
2019-05-25T13:35:15.906Z,95200.36
2019-05-25T13:37:44.770Z,95203.43
2019-05-25T13:40:13.963Z,95197.48
2019-05-25T13:42:42.856Z,95202.88
2019-05-25T13:45:13.382Z,95211.86
2019-05-25T13:47:42.279Z,95210.45
2019-05-25T13:50:12.141Z,95213.70
2019-05-25T13:52:41.079Z,95214.00
2019-05-25T13:55:10.728Z,95208.95
2019-05-25T13:57:39.787Z,95206.48
2019-05-25T14:00:09.389Z,95211.69
2019-05-25T14:02:38.289Z,95223.08
2019-05-25T14:05:07.681Z,95222.55
2019-05-25T14:07:36.580Z,95220.47
2019-05-25T14:10:08.288Z,95218.33
2019-05-25T14:12:37.231Z,95221.50
2019-05-25T14:15:08.036Z,95221.25
2019-05-25T14:17:37.061Z,95223.64
2019-05-25T14:20:07.691Z,95215.43
2019-05-25T14:22:36.581Z,95222.03
2019-05-25T14:25:07.230Z,95218.33
2019-05-25T14:27:36.105Z,95219.13
2019-05-25T14:30:06.203Z,95217.81
2019-05-25T14:32:35.123Z,95219.93
2019-05-25T14:35:04.517Z,95221.25
2019-05-25T14:37:33.410Z,95219.92
2019-05-25T14:40:02.304Z,95223.38
2019-05-25T14:42:31.194Z,95222.04
2019-05-25T14:45:00.103Z,95213.84
2019-05-25T14:47:29.178Z,95210.08
2019-05-25T14:49:58.099Z,95210.86
2019-05-25T14:52:26.962Z,95214.03
2019-05-25T14:54:55.851Z,95210.33
2019-05-25T14:57:24.856Z,95206.87
2019-05-25T14:59:53.738Z,95210.77
2019-05-25T15:02:22.631Z,95217.64
2019-05-25T15:04:51.521Z,95210.45
2019-05-25T15:07:20.411Z,95218.07
2019-05-25T15:09:49.302Z,95210.12
2019-05-25T15:12:19.626Z,95216.12
2019-05-25T15:14:48.519Z,95224.77
2019-05-25T15:17:17.408Z,95225.83
2019-05-25T15:19:46.299Z,95223.08
2019-05-25T15:22:15.342Z,95219.88
2019-05-25T15:24:44.492Z,95218.08
2019-05-25T15:27:13.382Z,95219.16
2019-05-25T15:29:42.274Z,95223.44
2019-05-25T15:32:20.188Z,95229.97
2019-05-25T15:34:42.311Z,95221.69
2019-05-25T15:37:12.331Z,95229.42
2019-05-25T15:39:41.220Z,95229.36
2019-05-25T15:42:10.521Z,95229.69
2019-05-25T15:44:39.414Z,95228.66
2019-05-25T15:47:08.478Z,95223.08
2019-05-25T15:49:37.402Z,95221.97
2019-05-25T15:52:06.600Z,95228.74
2019-05-25T15:54:35.488Z,95230.88
2019-05-25T15:57:04.689Z,95230.89
2019-05-25T15:59:33.679Z,95231.42
2019-05-25T16:02:02.682Z,95235.97
2019-05-25T16:04:31.667Z,95234.58
2019-05-25T16:07:00.459Z,95234.66
2019-05-25T16:09:29.351Z,95231.50
2019-05-25T16:11:58.242Z,95236.30
2019-05-25T16:14:27.161Z,95243.91
2019-05-25T16:16:56.022Z,95244.44
2019-05-25T16:19:24.910Z,95248.34
2019-05-25T16:21:53.814Z,95240.97
2019-05-25T16:24:22.665Z,95252.09
2019-05-25T16:26:51.585Z,95254.16
2019-05-25T16:29:20.503Z,95266.92
2019-05-25T16:31:49.367Z,95267.00
2019-05-25T16:34:18.363Z,95274.63
2019-05-25T16:36:47.251Z,95274.63
2019-05-25T16:39:16.144Z,95273.01
2019-05-25T16:41:45.147Z,95278.03
2019-05-25T16:44:14.028Z,95282.95
2019-05-25T16:46:42.822Z,95285.02
2019-05-25T16:49:11.943Z,95282.52
2019-05-25T16:51:40.802Z,95277.50
2019-05-25T16:54:09.900Z,95284.75
2019-05-25T16:56:41.248Z,95279.22
2019-05-25T16:59:10.858Z,95285.95
2019-05-25T17:01:48.194Z,95288.59
2019-05-25T17:04:11.548Z,95293.14
2019-05-25T17:06:40.618Z,95302.19
2019-05-25T17:09:10.115Z,95300.08
2019-05-25T17:11:39.005Z,95304.36
2019-05-25T17:14:08.683Z,95299.29
2019-05-25T17:16:39.041Z,95305.84
2019-05-25T17:19:08.864Z,95301.19
2019-05-25T17:21:37.739Z,95296.61
2019-05-25T17:24:09.207Z,95296.88
2019-05-25T17:26:38.083Z,95297.66
2019-05-25T17:29:07.968Z,95300.01
2019-05-25T17:31:36.911Z,95298.65
2019-05-25T17:34:06.004Z,95298.78
2019-05-25T17:36:34.877Z,95306.25
2019-05-25T17:39:03.966Z,95303.77
2019-05-25T17:41:32.864Z,95304.56
2019-05-25T17:44:01.755Z,95306.51
2019-05-25T17:46:30.701Z,95315.02
2019-05-25T17:48:59.655Z,95309.48
2019-05-25T17:51:28.531Z,95305.58
2019-05-25T17:53:58.861Z,95305.53
2019-05-25T17:56:27.752Z,95310.59
2019-05-25T17:58:57.181Z,95318.05
2019-05-25T18:01:26.044Z,95314.09
2019-05-25T18:04:06.350Z,95323.45
2019-05-25T18:06:25.772Z,95318.69
2019-05-25T18:08:54.762Z,95317.51
2019-05-25T18:11:23.654Z,95316.63
2019-05-25T18:13:52.750Z,95320.56
2019-05-25T18:16:25.135Z,95319.92
2019-05-25T18:18:54.016Z,95325.08
2019-05-25T18:21:22.903Z,95325.48
2019-05-25T18:23:51.798Z,95327.30
2019-05-25T18:26:20.583Z,95321.95
2019-05-25T18:28:49.387Z,95318.08
2019-05-25T18:31:18.263Z,95314.21
2019-05-25T18:33:47.156Z,95313.19
2019-05-25T18:36:16.045Z,95315.73
2019-05-25T18:38:44.939Z,95319.94
2019-05-25T18:41:15.670Z,95319.55
2019-05-25T18:43:44.569Z,95316.58
2019-05-25T18:46:13.458Z,95323.44
2019-05-25T18:48:42.250Z,95328.75
2019-05-25T18:51:11.544Z,95330.01
2019-05-25T18:53:40.437Z,95324.81
2019-05-25T18:56:09.635Z,95319.05
2019-05-25T18:58:38.525Z,95326.75
2019-05-25T19:01:08.242Z,95317.84
2019-05-25T19:03:38.661Z,95327.07
2019-05-25T19:06:07.656Z,95330.50
2019-05-25T19:08:36.445Z,95331.63
2019-05-25T19:11:05.440Z,95340.22
2019-05-25T19:13:34.329Z,95344.09
2019-05-25T19:16:03.397Z,95338.41
2019-05-25T19:18:32.316Z,95338.50
2019-05-25T19:21:01.220Z,95343.21
2019-05-25T19:23:30.101Z,95336.22
2019-05-25T19:25:59.093Z,95333.35
2019-05-25T19:28:27.983Z,95341.16
2019-05-25T19:30:56.878Z,95351.67
2019-05-25T19:33:25.767Z,95360.47
2019-05-25T19:35:56.093Z,95352.91
2019-05-25T19:38:24.985Z,95359.41
2019-05-25T19:40:53.875Z,95352.02
2019-05-25T19:43:23.689Z,95359.03
2019-05-25T19:45:52.782Z,95365.84
2019-05-25T19:48:21.639Z,95367.32
2019-05-25T19:50:50.465Z,95369.23
2019-05-25T19:53:19.357Z,95368.20
2019-05-25T19:55:49.473Z,95372.48
2019-05-25T19:58:18.366Z,95376.49
2019-05-25T20:00:47.249Z,95380.10
2019-05-25T20:03:16.147Z,95384.32
2019-05-25T20:05:45.656Z,95396.91
2019-05-25T20:08:14.544Z,95400.77
2019-05-25T20:10:43.537Z,95407.38
2019-05-25T20:13:12.429Z,95412.89
2019-05-25T20:15:41.321Z,95411.30
2019-05-25T20:18:11.340Z,95426.38
2019-05-25T20:20:41.766Z,95434.39
2019-05-25T20:23:11.419Z,95434.36
2019-05-25T20:25:40.266Z,95434.00
2019-05-25T20:28:09.261Z,95436.30
2019-05-25T20:30:38.053Z,95438.17
2019-05-25T20:33:06.938Z,95445.95
2019-05-25T20:35:35.829Z,95446.95
2019-05-25T20:38:04.720Z,95442.92
2019-05-25T20:40:33.612Z,95435.28
2019-05-25T20:43:03.943Z,95441.41
2019-05-25T20:45:32.831Z,95438.98
2019-05-25T20:48:01.723Z,95450.52
2019-05-25T20:50:30.625Z,95442.66
2019-05-25T20:52:59.504Z,95441.94
2019-05-25T20:55:28.394Z,95446.23
2019-05-25T20:57:57.283Z,95453.95
2019-05-25T21:00:26.176Z,95453.35
2019-05-25T21:03:05.387Z,95454.18
2019-05-25T21:05:25.697Z,95462.72
2019-05-25T21:07:54.591Z,95461.09
2019-05-25T21:10:23.481Z,95463.89
2019-05-25T21:12:52.375Z,95469.64
2019-05-25T21:15:21.365Z,95466.98
2019-05-25T21:17:50.255Z,95471.33
2019-05-25T21:20:19.254Z,95464.13
2019-05-25T21:22:48.139Z,95459.90
2019-05-25T21:25:17.970Z,95455.22
2019-05-25T21:27:46.846Z,95459.69
2019-05-25T21:30:16.927Z,95445.03
2019-05-25T21:32:45.863Z,95453.22
2019-05-25T21:35:14.843Z,95447.34
2019-05-25T21:37:43.639Z,95445.53
2019-05-25T21:40:13.451Z,95450.20
2019-05-25T21:42:42.349Z,95452.52
2019-05-25T21:45:12.752Z,95446.89
2019-05-25T21:47:41.662Z,95449.69
2019-05-25T21:50:11.338Z,95446.39
2019-05-25T21:52:41.701Z,95444.54
2019-05-25T21:55:11.059Z,95440.94
2019-05-25T21:57:39.886Z,95431.96
2019-05-25T22:00:12.173Z,95433.20
2019-05-25T22:02:41.151Z,95434.00
2019-05-25T22:05:11.785Z,95431.23
2019-05-25T22:07:40.573Z,95432.59
2019-05-25T22:10:10.909Z,95431.34
2019-05-25T22:12:40.487Z,95429.36
2019-05-25T22:15:12.238Z,95434.77
2019-05-25T22:17:41.060Z,95426.80
2019-05-25T22:20:10.697Z,95436.18
2019-05-25T22:22:39.654Z,95448.19
2019-05-25T22:25:09.027Z,95446.92
2019-05-25T22:27:37.809Z,95444.54
2019-05-25T22:30:09.390Z,95445.42
2019-05-25T22:32:38.393Z,95440.17
2019-05-25T22:35:08.278Z,95437.55
2019-05-25T22:37:37.099Z,95438.88
2019-05-25T22:40:07.934Z,95430.52
2019-05-25T22:42:36.830Z,95427.76
2019-05-25T22:45:08.228Z,95426.17
2019-05-25T22:47:37.074Z,95430.47
2019-05-25T22:50:06.647Z,95429.05
2019-05-25T22:52:35.564Z,95419.97
2019-05-25T22:55:08.138Z,95420.09
2019-05-25T22:57:36.940Z,95418.20
2019-05-25T23:00:09.332Z,95412.58
2019-05-25T23:02:38.195Z,95406.03
2019-05-25T23:05:08.848Z,95405.17
2019-05-25T23:07:37.829Z,95400.80
2019-05-25T23:10:08.414Z,95401.55
2019-05-25T23:12:37.344Z,95404.34
2019-05-25T23:15:07.737Z,95398.65
2019-05-25T23:17:36.565Z,95404.86
2019-05-25T23:20:07.805Z,95408.23
2019-05-25T23:22:36.702Z,95408.75
2019-05-25T23:25:05.899Z,95404.07
2019-05-25T23:27:34.859Z,95410.44
2019-05-25T23:30:04.293Z,95410.34
2019-05-25T23:32:33.273Z,95412.17
2019-05-25T23:35:02.081Z,95410.11
2019-05-25T23:37:30.966Z,95409.12
2019-05-25T23:39:59.857Z,95412.98
2019-05-25T23:42:28.748Z,95414.42
2019-05-25T23:44:57.543Z,95410.36
2019-05-25T23:47:26.428Z,95403.68
2019-05-25T23:49:55.218Z,95400.31
2019-05-25T23:52:24.108Z,95392.61
2019-05-25T23:54:53.004Z,95386.56
2019-05-25T23:57:22.914Z,95384.08
2019-05-25T23:59:51.805Z,95385.34
